createdAt,value
2019-03-04T00:00:48.702Z,99191.99
2019-03-04T00:03:17.886Z,99191.17
2019-03-04T00:05:47.210Z,99191.17
2019-03-04T00:08:28.278Z,99177.75
2019-03-04T00:10:59.386Z,99167.73
2019-03-04T00:13:31.021Z,99156.14
2019-03-04T00:16:02.630Z,99140.80
2019-03-04T00:18:36.007Z,99138.48
2019-03-04T00:21:02.502Z,99124.70
2019-03-04T00:23:36.232Z,99132.89
2019-03-04T00:26:09.958Z,99119.95
2019-03-04T00:28:45.639Z,99106.48
2019-03-04T00:31:24.996Z,99129.02
2019-03-04T00:33:57.212Z,99125.37
2019-03-04T00:36:26.237Z,99125.37
2019-03-04T00:38:55.359Z,99120.62
2019-03-04T00:41:28.128Z,99120.30
2019-03-04T00:44:17.257Z,99120.30
2019-03-04T00:46:52.647Z,99094.13
2019-03-04T00:49:33.917Z,99092.58
2019-03-04T00:52:28.537Z,99092.58
2019-03-04T00:55:08.316Z,99080.81
2019-03-04T00:57:37.418Z,99067.67
2019-03-04T01:00:14.985Z,99067.71
2019-03-04T01:03:16.016Z,99058.63
2019-03-04T01:05:49.655Z,99051.93
2019-03-04T01:08:42.624Z,99042.69
2019-03-04T01:11:11.783Z,99047.34
2019-03-04T01:13:40.840Z,99032.22
2019-03-04T01:16:09.910Z,99003.70
2019-03-04T01:18:39.464Z,99009.59
2019-03-04T01:21:08.616Z,98995.91
2019-03-04T01:23:37.772Z,98993.27
2019-03-04T01:26:09.431Z,98979.96
2019-03-04T01:28:39.911Z,98996.17
2019-03-04T01:31:08.953Z,98986.55
2019-03-04T01:33:38.032Z,98984.15
2019-03-04T01:36:22.089Z,98950.18
2019-03-04T01:38:54.177Z,98950.18
2019-03-04T01:41:26.541Z,98937.53
2019-03-04T01:43:55.723Z,98937.53
2019-03-04T01:46:36.470Z,98901.26
2019-03-04T01:49:09.374Z,98931.17
2019-03-04T01:51:38.711Z,98938.30
2019-03-04T01:54:10.805Z,98938.30
2019-03-04T01:59:57.738Z,98919.39
2019-03-04T02:02:39.169Z,98899.84
2019-03-04T02:05:08.571Z,98899.84
2019-03-04T02:08:34.019Z,98877.63
2019-03-04T02:10:19.103Z,98873.72
2019-03-04T02:13:15.948Z,98883.22
2019-03-04T02:15:45.628Z,98874.84
2019-03-04T02:18:15.246Z,98874.84
2019-03-04T02:20:48.301Z,98870.73
2019-03-04T02:23:17.065Z,98861.58
2019-03-04T02:26:42.423Z,98830.06
2019-03-04T02:29:20.846Z,98831.58
2019-03-04T02:31:50.000Z,98820.61
2019-03-04T02:34:19.048Z,98826.50
2019-03-04T02:36:48.145Z,98821.14
2019-03-04T02:39:17.153Z,98799.55
2019-03-04T02:41:51.063Z,98808.03
2019-03-04T02:44:20.105Z,98804.64
2019-03-04T02:46:52.872Z,98789.44
2019-03-04T02:49:22.042Z,98774.14
2019-03-04T02:51:51.339Z,98757.79
2019-03-04T02:54:25.051Z,98757.79
2019-03-04T02:56:59.566Z,98738.88
2019-03-04T02:59:28.627Z,98738.88
2019-03-04T03:01:57.718Z,98727.44
2019-03-04T03:04:26.779Z,98727.44
2019-03-04T03:07:07.275Z,98692.23
2019-03-04T03:09:37.261Z,98672.87
2019-03-04T03:12:09.388Z,98672.87
2019-03-04T03:15:12.936Z,98677.17
2019-03-04T03:17:42.071Z,98677.17
2019-03-04T03:20:48.515Z,98669.94
2019-03-04T03:23:14.937Z,98670.09
2019-03-04T03:25:53.939Z,98673.13
2019-03-04T03:28:37.237Z,98656.31
2019-03-04T03:31:21.346Z,98658.66
2019-03-04T03:33:50.394Z,98652.82
2019-03-04T03:36:24.240Z,98639.69
2019-03-04T03:38:53.338Z,98632.84
2019-03-04T03:41:23.481Z,98628.98
2019-03-04T03:43:52.616Z,98628.98
2019-03-04T03:46:21.660Z,98635.85
2019-03-04T03:48:52.739Z,98624.05
2019-03-04T03:51:21.624Z,98608.38
2019-03-04T03:53:50.688Z,98608.38
2019-03-04T03:56:22.817Z,98609.59
2019-03-04T03:59:02.984Z,98593.19
2019-03-04T04:01:27.042Z,98572.26
2019-03-04T04:03:56.033Z,98572.26
2019-03-04T04:06:25.028Z,98571.61
2019-03-04T04:08:57.091Z,98559.29
2019-03-04T04:11:27.437Z,98559.29
2019-03-04T04:13:56.465Z,98546.03
2019-03-04T04:16:25.853Z,98555.16
2019-03-04T04:18:54.897Z,98555.16
2019-03-04T04:21:24.113Z,98529.42
2019-03-04T04:23:53.138Z,98523.66
2019-03-04T04:26:22.179Z,98523.66
2019-03-04T04:29:22.356Z,98518.36
2019-03-04T04:31:51.402Z,98518.36
2019-03-04T04:34:23.195Z,98506.39
2019-03-04T04:37:04.888Z,98484.66
2019-03-04T04:39:29.143Z,98484.66
2019-03-04T04:41:58.128Z,98495.61
2019-03-04T04:44:27.263Z,98498.01
2019-03-04T04:47:03.339Z,98480.25
2019-03-04T04:49:35.369Z,98492.24
2019-03-04T04:52:11.737Z,98474.78
2019-03-04T04:54:42.611Z,98483.94
2019-03-04T04:57:11.688Z,98483.94
2019-03-04T04:59:40.771Z,98473.52
2019-03-04T05:02:12.279Z,98459.32
2019-03-04T05:04:44.073Z,98474.05
2019-03-04T05:07:13.124Z,98467.48
2019-03-04T05:09:45.202Z,98462.88
2019-03-04T05:12:14.223Z,98458.16
2019-03-04T05:14:43.245Z,98464.73
2019-03-04T05:17:12.257Z,98454.61
2019-03-04T05:19:41.383Z,98538.13
2019-03-04T05:22:10.480Z,98575.47
2019-03-04T05:24:39.463Z,98571.66
2019-03-04T05:27:08.553Z,98578.42
2019-03-04T05:29:37.547Z,98578.42
2019-03-04T05:32:06.576Z,98556.23
2019-03-04T05:34:35.639Z,98549.93
2019-03-04T05:37:04.703Z,98519.67
2019-03-04T05:39:33.824Z,98514.92
2019-03-04T05:42:02.890Z,98514.92
2019-03-04T05:44:31.966Z,98516.80
2019-03-04T05:47:01.566Z,98516.80
2019-03-04T05:49:30.656Z,98538.70
2019-03-04T05:51:59.760Z,98539.43
2019-03-04T05:54:30.601Z,98554.87
2019-03-04T05:56:59.709Z,98512.77
2019-03-04T05:59:31.272Z,98485.18
2019-03-04T06:02:04.537Z,98487.98
2019-03-04T06:04:33.548Z,98486.12
2019-03-04T06:07:08.463Z,98492.92
2019-03-04T06:09:37.502Z,98492.92
2019-03-04T06:12:06.520Z,98441.70
2019-03-04T06:14:36.613Z,98441.70
2019-03-04T06:17:05.778Z,98453.80
2019-03-04T06:19:34.854Z,98465.45
2019-03-04T06:22:04.004Z,98461.85
2019-03-04T06:24:33.019Z,98449.16
2019-03-04T06:27:01.961Z,98466.12
2019-03-04T06:29:30.956Z,98472.80
2019-03-04T06:32:00.004Z,98466.49
2019-03-04T06:34:28.993Z,98462.40
2019-03-04T06:36:57.987Z,98474.85
2019-03-04T06:39:26.976Z,98478.28
2019-03-04T06:41:55.981Z,98485.03
2019-03-04T06:44:24.973Z,98490.79
2019-03-04T06:46:53.955Z,98490.79
2019-03-04T06:49:24.169Z,98514.33
2019-03-04T06:51:56.328Z,98514.33
2019-03-04T06:54:47.650Z,98498.13
2019-03-04T06:57:28.527Z,98498.13
2019-03-04T07:00:33.402Z,98497.86
2019-03-04T07:03:05.558Z,98505.87
2019-03-04T07:05:53.401Z,98505.87
2019-03-04T07:09:05.114Z,98496.00
2019-03-04T07:11:34.565Z,98506.19
2019-03-04T07:14:03.683Z,98496.19
2019-03-04T07:16:32.736Z,98492.86
2019-03-04T07:19:03.937Z,98490.53
2019-03-04T07:21:33.127Z,98493.17
2019-03-04T07:24:02.147Z,98505.48
2019-03-04T07:26:31.219Z,98498.26
2019-03-04T07:29:00.280Z,98502.80
2019-03-04T07:31:29.500Z,98487.63
2019-03-04T07:33:58.574Z,98491.80
2019-03-04T07:36:27.634Z,98509.09
2019-03-04T07:39:05.807Z,98490.19
2019-03-04T07:41:36.895Z,98490.19
2019-03-04T07:44:06.033Z,98528.58
2019-03-04T07:46:36.431Z,98526.55
2019-03-04T07:49:05.550Z,98526.55
2019-03-04T07:51:34.771Z,98537.01
2019-03-04T07:54:04.015Z,98545.98
2019-03-04T07:56:33.067Z,98549.98
2019-03-04T07:59:02.165Z,98539.29
2019-03-04T08:01:31.170Z,98539.29
2019-03-04T08:04:00.333Z,98555.47
2019-03-04T08:06:32.413Z,98571.75
2019-03-04T08:09:57.098Z,98564.82
2019-03-04T08:13:08.137Z,98562.19
2019-03-04T08:15:45.643Z,98562.19
2019-03-04T08:18:14.816Z,98580.90
2019-03-04T08:20:43.879Z,98577.91
2019-03-04T08:23:12.927Z,98587.52
2019-03-04T08:25:42.124Z,98598.80
2019-03-04T08:28:13.156Z,98608.75
2019-03-04T08:30:42.298Z,98600.45
2019-03-04T08:33:11.392Z,98600.45
2019-03-04T08:35:40.478Z,98620.06
2019-03-04T08:38:10.906Z,98636.19
2019-03-04T08:40:40.114Z,98642.41
2019-03-04T08:43:09.101Z,98658.27
2019-03-04T08:45:38.169Z,98685.47
2019-03-04T08:48:07.309Z,98697.02
2019-03-04T08:50:36.268Z,98680.75
2019-03-04T08:53:05.345Z,98700.63
2019-03-04T08:55:34.404Z,98700.63
2019-03-04T08:58:03.426Z,98712.63
2019-03-04T09:00:32.857Z,98722.67
2019-03-04T09:03:02.102Z,98719.77
2019-03-04T09:05:31.088Z,98719.77
2019-03-04T09:08:00.137Z,98743.36
2019-03-04T09:10:30.196Z,98748.84
2019-03-04T09:12:59.260Z,98745.13
2019-03-04T09:15:28.522Z,98760.63
2019-03-04T09:17:57.574Z,98763.23
2019-03-04T09:20:26.705Z,98770.33
2019-03-04T09:22:55.847Z,98775.48
2019-03-04T09:25:36.770Z,98779.34
2019-03-04T09:28:05.984Z,98779.34
2019-03-04T09:30:35.060Z,98780.02
2019-03-04T09:33:04.299Z,98781.34
2019-03-04T09:35:33.457Z,98784.52
2019-03-04T09:38:02.552Z,98784.52
2019-03-04T09:40:32.140Z,98797.17
2019-03-04T09:43:01.307Z,98806.86
2019-03-04T09:45:38.317Z,98806.86
2019-03-04T09:48:01.257Z,98812.11
2019-03-04T09:50:30.499Z,98810.41
2019-03-04T09:52:59.677Z,98806.48
2019-03-04T09:55:28.901Z,98806.48
2019-03-04T09:57:58.043Z,98814.08
2019-03-04T10:00:32.466Z,98824.97
2019-03-04T10:03:12.862Z,98824.91
2019-03-04T10:06:05.570Z,98828.63
2019-03-04T10:08:44.672Z,98828.63
2019-03-04T10:11:55.401Z,98827.06
2019-03-04T10:15:07.556Z,98829.54
2019-03-04T10:17:44.323Z,98824.25
2019-03-04T10:21:02.186Z,98824.25
2019-03-04T10:24:11.468Z,98831.81
2019-03-04T10:27:26.960Z,98840.66
2019-03-04T10:30:25.666Z,98840.66
2019-03-04T10:33:50.325Z,98846.69
2019-03-04T10:36:50.874Z,98850.28
2019-03-04T10:39:34.837Z,98864.44
2019-03-04T10:42:43.558Z,98864.44
2019-03-04T10:45:47.126Z,98869.10
2019-03-04T10:48:17.232Z,98872.58
2019-03-04T10:50:46.598Z,98876.14
2019-03-04T10:53:15.682Z,98883.66
2019-03-04T10:55:44.670Z,98893.53
2019-03-04T10:58:14.183Z,98888.77
2019-03-04T11:00:43.240Z,98884.99
2019-03-04T11:03:12.351Z,98884.99
2019-03-04T11:05:41.416Z,98897.47
2019-03-04T11:08:10.460Z,98904.08
2019-03-04T11:10:39.489Z,98904.08
2019-03-04T11:13:08.548Z,98899.28
2019-03-04T11:15:37.527Z,98909.36
2019-03-04T11:18:06.629Z,98912.23
2019-03-04T11:20:35.684Z,98912.23
2019-03-04T11:23:04.959Z,98929.23
2019-03-04T11:25:34.368Z,98934.39
2019-03-04T11:28:03.496Z,98938.33
2019-03-04T11:30:32.833Z,98952.30
2019-03-04T11:33:01.951Z,98952.75
2019-03-04T11:35:31.096Z,98952.75
2019-03-04T11:38:00.161Z,98969.84
2019-03-04T11:40:35.622Z,98969.14
2019-03-04T11:43:04.757Z,98974.67
2019-03-04T11:45:33.822Z,98986.80
2019-03-04T11:48:02.915Z,98991.11
2019-03-04T11:50:31.943Z,98991.11
2019-03-04T11:53:01.012Z,99008.63
2019-03-04T11:55:30.626Z,99008.63
2019-03-04T11:57:59.667Z,99011.66
2019-03-04T12:00:44.363Z,99023.02
2019-03-04T12:03:13.428Z,99010.22
2019-03-04T12:05:42.506Z,99020.98
2019-03-04T12:08:11.585Z,99010.08
2019-03-04T12:10:40.636Z,99027.48
2019-03-04T12:13:09.751Z,99024.41
2019-03-04T12:15:38.842Z,99024.41
2019-03-04T12:18:08.775Z,99034.27
2019-03-04T12:20:37.863Z,99038.32
2019-03-04T12:23:06.937Z,99056.00
2019-03-04T12:25:36.060Z,99054.62
2019-03-04T12:28:05.312Z,99061.69
2019-03-04T12:30:34.354Z,99061.69
2019-03-04T12:33:03.745Z,99072.55
2019-03-04T12:35:32.759Z,99076.25
2019-03-04T12:38:01.876Z,99088.39
2019-03-04T12:40:31.435Z,99088.39
2019-03-04T12:43:00.476Z,99088.16
2019-03-04T12:45:34.496Z,99090.23
2019-03-04T12:48:00.466Z,99090.23
2019-03-04T12:50:29.632Z,99100.78
2019-03-04T12:52:58.883Z,99097.96
2019-03-04T12:55:28.037Z,99114.59
2019-03-04T12:57:57.098Z,99114.59
2019-03-04T13:00:26.221Z,99116.61
2019-03-04T13:02:57.819Z,99115.02
2019-03-04T13:05:26.157Z,99115.02
2019-03-04T13:07:55.238Z,99123.20
2019-03-04T13:10:26.465Z,99136.09
2019-03-04T13:12:55.664Z,99133.73
2019-03-04T13:15:25.135Z,99159.42
2019-03-04T13:17:54.283Z,99170.77
2019-03-04T13:20:23.509Z,99173.53
2019-03-04T13:22:52.604Z,99168.16
2019-03-04T13:25:21.797Z,99168.16
2019-03-04T13:27:50.857Z,99194.81
2019-03-04T13:30:21.715Z,99194.81
2019-03-04T13:32:50.897Z,99196.02
2019-03-04T13:35:24.403Z,99190.33
2019-03-04T13:37:52.091Z,99195.96
2019-03-04T13:40:21.226Z,99206.81
2019-03-04T13:42:50.346Z,99215.72
2019-03-04T13:45:19.755Z,99219.14
2019-03-04T13:47:48.811Z,99226.47
2019-03-04T13:50:19.730Z,99220.06
2019-03-04T13:52:48.763Z,99237.90
2019-03-04T13:55:19.781Z,99232.80
2019-03-04T13:57:50.913Z,99260.20
2019-03-04T14:00:20.606Z,99269.95
2019-03-04T14:02:51.151Z,99267.79
2019-03-04T14:05:20.808Z,99261.03
2019-03-04T14:07:49.863Z,99266.51
2019-03-04T14:10:19.861Z,99266.51
2019-03-04T14:12:49.051Z,99278.84
2019-03-04T14:15:25.410Z,99294.77
2019-03-04T14:17:54.450Z,99294.77
2019-03-04T14:20:23.605Z,99305.84
2019-03-04T14:22:57.882Z,99269.20
2019-03-04T14:25:26.723Z,99315.39
2019-03-04T14:27:56.730Z,99301.91
2019-03-04T14:30:25.919Z,99303.86
2019-03-04T14:32:55.045Z,99282.32
2019-03-04T14:35:24.122Z,99282.32
2019-03-04T14:37:53.098Z,99348.22
2019-03-04T14:40:22.243Z,99359.89
2019-03-04T14:42:51.272Z,99345.06
2019-03-04T14:45:20.444Z,99352.10
2019-03-04T14:47:49.671Z,99361.55
2019-03-04T14:50:18.917Z,99355.91
2019-03-04T14:52:48.070Z,99372.95
2019-03-04T14:55:18.442Z,99376.30
2019-03-04T14:57:59.182Z,99376.30
2019-03-04T15:00:33.727Z,99386.95
2019-03-04T15:03:04.552Z,99392.22
2019-03-04T15:05:33.932Z,99411.52
2019-03-04T15:08:03.261Z,99409.40
2019-03-04T15:10:34.827Z,99415.05
2019-03-04T15:13:05.875Z,99423.85
2019-03-04T15:15:35.601Z,99418.55
2019-03-04T15:18:05.981Z,99425.70
2019-03-04T15:20:36.151Z,99421.58
2019-03-04T15:23:06.921Z,99435.83
2019-03-04T15:25:36.374Z,99445.59
2019-03-04T15:28:13.497Z,99441.87
2019-03-04T15:30:44.676Z,99443.91
2019-03-04T15:33:18.408Z,99470.31
2019-03-04T15:35:48.209Z,99470.31
2019-03-04T15:38:19.265Z,99478.02
2019-03-04T15:40:53.364Z,99472.78
2019-03-04T15:43:23.348Z,99452.63
2019-03-04T15:45:53.544Z,99481.66
2019-03-04T15:48:25.573Z,99481.66
2019-03-04T15:50:56.425Z,99480.89
2019-03-04T15:53:27.131Z,99495.01
2019-03-04T15:55:59.801Z,99506.84
2019-03-04T15:58:30.001Z,99500.98
2019-03-04T16:00:59.560Z,99500.98
2019-03-04T16:03:30.187Z,99502.58
2019-03-04T16:05:59.263Z,99502.58
2019-03-04T16:08:28.327Z,99507.05
2019-03-04T16:10:57.325Z,99512.44
2019-03-04T16:13:26.497Z,99517.82
2019-03-04T16:15:55.659Z,99524.97
2019-03-04T16:18:24.715Z,99517.97
2019-03-04T16:20:53.878Z,99522.86
2019-03-04T16:23:22.941Z,99531.50
2019-03-04T16:25:52.101Z,99538.38
2019-03-04T16:28:23.600Z,99538.38
2019-03-04T16:30:52.836Z,99557.06
2019-03-04T16:33:24.478Z,99553.95
2019-03-04T16:35:53.537Z,99553.95
2019-03-04T16:38:25.019Z,99558.56
2019-03-04T16:40:54.107Z,99557.35
2019-03-04T16:43:23.229Z,99561.42
2019-03-04T16:45:52.282Z,99582.23
2019-03-04T16:48:21.311Z,99582.23
2019-03-04T16:50:50.366Z,99570.02
2019-03-04T16:53:20.052Z,99582.48
2019-03-04T16:55:49.097Z,99579.85
2019-03-04T16:58:18.110Z,99579.85
2019-03-04T17:00:47.880Z,99587.89
2019-03-04T17:03:17.096Z,99595.80
2019-03-04T17:05:46.288Z,99603.16
2019-03-04T17:08:15.399Z,99606.52
2019-03-04T17:10:44.504Z,99606.52
2019-03-04T17:13:13.682Z,99606.78
2019-03-04T17:15:42.720Z,99593.39
2019-03-04T17:18:11.882Z,99601.56
2019-03-04T17:20:41.013Z,99601.56
2019-03-04T17:23:10.101Z,99606.02
2019-03-04T17:25:39.290Z,99617.18
2019-03-04T17:28:08.359Z,99613.66
2019-03-04T17:30:37.999Z,99607.25
2019-03-04T17:33:07.169Z,99607.25
2019-03-04T17:35:36.122Z,99622.63
2019-03-04T17:38:05.429Z,99606.56
2019-03-04T17:40:34.490Z,99606.56
2019-03-04T17:43:03.875Z,99606.78
2019-03-04T17:45:33.045Z,99610.91
2019-03-04T17:48:02.149Z,99610.91
2019-03-04T17:50:33.741Z,99617.66
2019-03-04T17:53:03.463Z,99617.66
2019-03-04T17:55:32.626Z,99617.28
2019-03-04T17:58:01.706Z,99620.80
2019-03-04T18:00:30.856Z,99620.80
2019-03-04T18:02:59.895Z,99623.74
2019-03-04T18:05:29.048Z,99629.43
2019-03-04T18:07:58.251Z,99616.46
2019-03-04T18:10:27.443Z,99616.46
2019-03-04T18:12:56.897Z,99629.38
2019-03-04T18:15:26.116Z,99629.38
2019-03-04T18:17:56.848Z,99617.95
2019-03-04T18:20:33.998Z,99617.95
2019-03-04T18:22:58.570Z,99630.22
2019-03-04T18:25:40.216Z,99633.45
2019-03-04T18:28:14.077Z,99639.89
2019-03-04T18:31:03.036Z,99639.80
2019-03-04T18:33:56.254Z,99644.53
2019-03-04T18:36:33.971Z,99644.53
2019-03-04T18:39:38.890Z,99651.80
2019-03-04T18:42:54.924Z,99643.26
2019-03-04T18:45:41.264Z,99643.26
2019-03-04T18:48:38.784Z,99659.95
2019-03-04T18:51:07.926Z,99662.48
2019-03-04T18:53:36.934Z,99659.93
2019-03-04T18:56:06.130Z,99660.98
2019-03-04T18:58:36.176Z,99660.98
2019-03-04T19:01:05.410Z,99662.03
2019-03-04T19:03:34.507Z,99652.23
2019-03-04T19:06:03.727Z,99664.94
2019-03-04T19:08:32.878Z,99667.05
2019-03-04T19:11:02.005Z,99662.86
2019-03-04T19:13:31.118Z,99662.86
2019-03-04T19:16:00.325Z,99657.13
2019-03-04T19:18:29.440Z,99670.47
2019-03-04T19:20:58.516Z,99668.49
2019-03-04T19:23:27.548Z,99664.25
2019-03-04T19:25:56.626Z,99663.80
2019-03-04T19:28:25.974Z,99659.02
2019-03-04T19:30:55.655Z,99661.11
2019-03-04T19:33:27.161Z,99661.11
2019-03-04T19:35:59.195Z,99667.90
2019-03-04T19:38:29.521Z,99667.24
2019-03-04T19:40:58.766Z,99669.05
2019-03-04T19:43:32.935Z,99662.48
2019-03-04T19:45:58.678Z,99662.48
2019-03-04T19:48:27.868Z,99682.02
2019-03-04T19:50:57.370Z,99682.02
2019-03-04T19:53:26.510Z,99689.63
2019-03-04T19:55:55.592Z,99681.30
2019-03-04T19:58:24.725Z,99686.38
2019-03-04T20:00:55.274Z,99697.98
2019-03-04T20:03:24.440Z,99685.18
2019-03-04T20:05:53.611Z,99681.03
2019-03-04T20:08:22.766Z,99696.09
2019-03-04T20:10:51.823Z,99696.09
2019-03-04T20:13:21.112Z,99680.83
2019-03-04T20:15:51.329Z,99693.63
2019-03-04T20:18:20.407Z,99699.80
2019-03-04T20:20:49.477Z,99696.27
2019-03-04T20:23:18.778Z,99699.52
2019-03-04T20:25:48.037Z,99694.34
2019-03-04T20:28:17.212Z,99686.66
2019-03-04T20:30:46.296Z,99702.45
2019-03-04T20:33:15.988Z,99687.21
2019-03-04T20:35:45.046Z,99687.21
2019-03-04T20:38:15.132Z,99702.80
2019-03-04T20:40:44.672Z,99700.63
2019-03-04T20:43:13.699Z,99704.61
2019-03-04T20:45:42.864Z,99701.52
2019-03-04T20:48:12.001Z,99701.52
2019-03-04T20:50:41.188Z,99676.88
2019-03-04T20:53:12.320Z,99676.88
2019-03-04T20:55:41.500Z,99687.31
2019-03-04T20:58:10.650Z,99698.63
2019-03-04T21:00:40.992Z,99698.63
2019-03-04T21:03:10.239Z,99710.59
2019-03-04T21:05:41.272Z,99712.48
2019-03-04T21:08:10.796Z,99712.48
2019-03-04T21:10:39.948Z,99712.48
2019-03-04T21:13:15.088Z,99716.40
2019-03-04T21:15:44.214Z,99716.40
2019-03-04T21:18:14.697Z,99725.56
2019-03-04T21:20:43.992Z,99719.66
2019-03-04T21:23:13.251Z,99737.88
2019-03-04T21:25:50.194Z,99729.75
2019-03-04T21:28:24.795Z,99741.78
2019-03-04T21:31:39.200Z,99743.88
2019-03-04T21:34:46.990Z,99742.62
2019-03-04T21:37:25.720Z,99741.41
2019-03-04T21:39:56.004Z,99742.89
2019-03-04T21:42:41.930Z,99752.77
2019-03-04T21:45:23.943Z,99752.77
2019-03-04T21:48:06.611Z,99757.03
2019-03-04T21:50:59.811Z,99760.84
2019-03-04T21:53:35.640Z,99765.73
2019-03-04T21:56:28.798Z,99765.73
2019-03-04T21:58:57.931Z,99769.45
2019-03-04T22:01:35.049Z,99778.23
2019-03-04T22:04:08.840Z,99784.86
2019-03-04T22:06:38.003Z,99784.86
2019-03-04T22:09:07.353Z,99782.05
2019-03-04T22:11:36.542Z,99785.59
2019-03-04T22:14:05.889Z,99785.59
2019-03-04T22:16:34.982Z,99796.30
2019-03-04T22:19:04.170Z,99798.83
2019-03-04T22:21:33.365Z,99801.45
2019-03-04T22:24:02.499Z,99804.20
2019-03-04T22:26:31.673Z,99808.35
2019-03-04T22:29:00.799Z,99811.71
2019-03-04T22:31:29.836Z,99806.55
2019-03-04T22:33:58.972Z,99813.97
2019-03-04T22:36:28.124Z,99813.97
2019-03-04T22:38:57.196Z,99817.87
2019-03-04T22:41:26.159Z,99817.87
2019-03-04T22:43:56.015Z,99820.78
2019-03-04T22:46:25.087Z,99820.78
2019-03-04T22:48:54.252Z,99823.13
2019-03-04T22:51:23.354Z,99828.67
2019-03-04T22:53:52.393Z,99833.89
2019-03-04T22:56:21.451Z,99850.67
2019-03-04T22:58:50.444Z,99859.96
2019-03-04T23:01:40.510Z,99843.70
2019-03-04T23:04:26.721Z,99843.70
2019-03-04T23:07:04.961Z,99855.13
2019-03-04T23:09:37.725Z,99860.55
2019-03-04T23:12:34.544Z,99871.78
2019-03-04T23:15:05.699Z,99871.78
2019-03-04T23:17:34.909Z,99863.01
2019-03-04T23:20:03.966Z,99863.01
2019-03-04T23:22:33.081Z,99869.83
2019-03-04T23:25:02.114Z,99873.78
2019-03-04T23:27:31.109Z,99873.78
2019-03-04T23:30:01.099Z,99872.14
2019-03-04T23:32:30.128Z,99872.14
2019-03-04T23:35:00.587Z,99878.39
2019-03-04T23:37:29.849Z,99878.39
2019-03-04T23:39:58.884Z,99888.45
2019-03-04T23:42:28.261Z,99888.45
2019-03-04T23:44:57.264Z,99887.88
2019-03-04T23:47:26.669Z,99869.20
2019-03-04T23:50:19.312Z,99886.52
2019-03-04T23:52:48.420Z,99886.52
2019-03-04T23:55:17.566Z,99883.16
2019-03-04T23:57:46.646Z,99880.88
